createdAt,value
2022-08-03T04:05:18.315Z,61.01
2022-08-03T04:08:39.937Z,61.01
2022-08-03T04:11:51.346Z,62.26
2022-08-03T04:14:56.756Z,62.29
2022-08-03T04:17:59.670Z,62.40
2022-08-03T04:21:05.839Z,62.26
2022-08-03T04:24:09.413Z,62.41
2022-08-03T04:27:14.085Z,62.14
2022-08-03T04:30:16.370Z,62.24
2022-08-03T04:33:19.986Z,62.28
2022-08-03T04:36:25.908Z,62.40
2022-08-03T04:39:31.381Z,62.28
2022-08-03T04:42:34.410Z,62.33
2022-08-03T04:45:37.887Z,62.05
2022-08-03T04:48:44.371Z,61.92
2022-08-03T04:51:49.121Z,61.83
2022-08-03T04:54:51.322Z,61.47
2022-08-03T04:57:53.674Z,61.72
2022-08-03T05:00:55.749Z,62.28
2022-08-03T05:03:58.128Z,62.23
2022-08-03T05:07:00.205Z,62.91
2022-08-03T05:10:15.797Z,62.68
2022-08-03T05:13:18.286Z,62.79
2022-08-03T05:16:20.642Z,62.12
2022-08-03T05:19:22.725Z,62.77
2022-08-03T05:22:25.066Z,61.94
2022-08-03T05:28:31.724Z,62.34
2022-08-03T05:31:33.858Z,61.36
2022-08-03T05:34:36.188Z,60.75
2022-08-03T05:37:38.284Z,59.78
2022-08-03T05:41:20.990Z,58.52
2022-08-03T05:44:20.605Z,58.58
2022-08-03T05:47:23.020Z,58.43
2022-08-03T05:50:25.083Z,58.46
2022-08-03T05:53:27.458Z,56.89
2022-08-03T05:56:29.551Z,56.62
2022-08-03T05:59:38.812Z,56.77
2022-08-03T06:02:41.231Z,56.20
2022-08-03T06:05:55.490Z,56.11
2022-08-03T06:09:02.575Z,55.90
2022-08-03T06:12:05.318Z,55.12
2022-08-03T06:15:08.070Z,53.81
2022-08-03T06:18:13.951Z,54.31
2022-08-03T06:21:16.395Z,53.54
2022-08-03T06:24:18.808Z,53.44
2022-08-03T06:27:29.358Z,53.20
2022-08-03T06:30:40.470Z,52.96
2022-08-03T06:34:31.051Z,52.67
2022-08-03T06:37:05.026Z,52.71
2022-08-03T06:40:07.594Z,52.93
2022-08-03T06:43:12.535Z,52.27
2022-08-03T06:46:14.927Z,51.76
2022-08-03T06:49:17.317Z,52.32
2022-08-03T06:52:37.566Z,52.07
2022-08-03T06:55:42.410Z,52.49
2022-08-03T06:58:44.673Z,51.94
2022-08-03T07:01:47.131Z,51.28
2022-08-03T07:04:49.302Z,51.74
2022-08-03T07:07:55.647Z,51.37
2022-08-03T07:10:57.798Z,51.48
2022-08-03T07:14:00.136Z,51.76
2022-08-03T07:17:04.657Z,51.06
2022-08-03T07:20:15.187Z,50.98
2022-08-03T07:23:19.263Z,51.45
2022-08-03T07:26:21.908Z,51.06
2022-08-03T07:29:23.977Z,51.22
2022-08-03T07:32:26.818Z,50.81
2022-08-03T07:35:28.918Z,51.15
2022-08-03T07:38:31.298Z,50.30
2022-08-03T07:41:33.545Z,50.40
2022-08-03T07:44:36.557Z,50.24
2022-08-03T07:47:38.633Z,50.43
2022-08-03T07:50:40.963Z,50.11
2022-08-03T07:53:47.295Z,50.35
2022-08-03T07:56:50.251Z,50.80
2022-08-03T08:00:01.835Z,50.10
2022-08-03T08:03:14.062Z,50.64
2022-08-03T08:06:16.529Z,48.83
2022-08-03T08:09:18.621Z,49.76
2022-08-03T08:12:21.137Z,49.68
2022-08-03T08:15:23.510Z,49.77
2022-08-03T08:18:25.836Z,49.90
2022-08-03T08:22:01.802Z,49.58
2022-08-03T08:24:50.769Z,49.81
2022-08-03T08:28:31.261Z,49.56
2022-08-03T08:31:17.044Z,48.93
2022-08-03T08:34:19.134Z,48.85
2022-08-03T08:37:21.534Z,48.43
2022-08-03T08:40:23.670Z,48.09
2022-08-03T08:43:26.018Z,47.11
2022-08-03T08:46:32.019Z,48.26
2022-08-03T08:49:39.730Z,47.15
2022-08-03T08:52:43.422Z,46.64
2022-08-03T08:55:59.548Z,47.69
2022-08-03T08:59:02.833Z,47.79
2022-08-03T09:02:06.082Z,47.10
2022-08-03T09:05:16.987Z,47.21
2022-08-03T09:08:19.603Z,46.51
2022-08-03T09:11:55.707Z,46.22
2022-08-03T09:15:07.447Z,45.87
2022-08-03T09:18:09.570Z,44.89
2022-08-03T09:21:32.037Z,45.52
2022-08-03T09:24:41.632Z,45.24
2022-08-03T09:27:46.419Z,44.33
2022-08-03T09:31:00.701Z,44.64
2022-08-03T09:34:08.298Z,44.30
2022-08-03T09:37:16.134Z,43.12
2022-08-03T09:40:34.603Z,44.04
2022-08-03T09:43:46.697Z,44.64
2022-08-03T09:46:54.930Z,45.09
2022-08-03T09:50:01.881Z,43.75
2022-08-03T09:53:04.283Z,42.83
2022-08-03T09:56:35.898Z,42.39
2022-08-03T09:59:31.950Z,43.05
2022-08-03T10:02:34.000Z,41.83
2022-08-03T10:05:36.322Z,42.25
2022-08-03T10:08:38.413Z,41.91
2022-08-03T10:11:42.644Z,43.44
2022-08-03T10:14:46.604Z,42.09
2022-08-03T10:17:49.261Z,42.34
2022-08-03T10:20:53.789Z,42.73
2022-08-03T10:23:56.782Z,41.83
2022-08-03T10:27:07.437Z,41.16
2022-08-03T10:30:11.750Z,41.74
2022-08-03T10:33:50.844Z,43.29
2022-08-03T10:36:55.706Z,41.71
2022-08-03T10:39:59.997Z,41.35
2022-08-03T10:43:25.975Z,41.37
2022-08-03T10:46:28.986Z,41.81
2022-08-03T10:49:34.313Z,41.83
2022-08-03T10:52:54.037Z,40.91
2022-08-03T10:56:14.886Z,40.90
2022-08-03T10:59:47.201Z,41.39
2022-08-03T11:03:09.370Z,41.40
2022-08-03T11:06:18.945Z,41.21
2022-08-03T11:09:21.306Z,40.98
2022-08-03T11:12:32.731Z,40.43
2022-08-03T11:15:35.982Z,40.39
2022-08-03T11:18:56.217Z,42.05
2022-08-03T11:21:59.072Z,41.22
2022-08-03T11:25:01.734Z,40.33
2022-08-03T11:28:28.211Z,41.72
2022-08-03T11:31:49.390Z,40.59
2022-08-03T11:35:09.050Z,39.12
2022-08-03T11:38:12.982Z,38.63
2022-08-03T11:41:33.338Z,37.73
2022-08-03T11:44:47.492Z,36.99
2022-08-03T11:47:53.952Z,37.65
2022-08-03T11:50:56.819Z,37.96
2022-08-03T11:54:04.489Z,37.94
2022-08-03T11:57:06.742Z,37.44
2022-08-03T12:00:30.464Z,40.00
2022-08-03T12:03:34.745Z,37.43
2022-08-03T12:06:55.165Z,36.49
2022-08-03T12:10:08.526Z,37.08
2022-08-03T12:14:26.937Z,35.73
2022-08-03T12:16:32.969Z,36.03
2022-08-03T12:19:44.670Z,36.25
2022-08-03T12:22:47.010Z,35.76
2022-08-03T12:25:49.580Z,35.61
2022-08-03T12:28:52.383Z,35.96
2022-08-03T12:31:55.930Z,35.81
2022-08-03T12:35:01.305Z,35.35
2022-08-03T12:38:04.075Z,35.29
2022-08-03T12:41:11.774Z,36.81
2022-08-03T12:44:13.904Z,36.58
2022-08-03T12:47:16.469Z,35.72
2022-08-03T12:50:31.322Z,36.10
2022-08-03T12:53:35.517Z,35.92
2022-08-03T12:57:00.162Z,36.25
2022-08-03T13:00:17.454Z,36.23
2022-08-03T13:03:42.702Z,36.28
2022-08-03T13:07:03.005Z,37.10
2022-08-03T13:10:08.135Z,36.49
2022-08-03T13:13:10.779Z,36.33
2022-08-03T13:16:18.769Z,37.55
2022-08-03T13:19:21.591Z,36.86
2022-08-03T13:22:25.795Z,36.01
2022-08-03T13:25:28.157Z,35.90
2022-08-03T13:28:30.247Z,35.96
2022-08-03T13:31:32.585Z,35.96
2022-08-03T13:34:34.834Z,35.67
2022-08-03T13:37:38.026Z,34.71
2022-08-03T13:40:41.825Z,33.90
2022-08-03T13:43:44.295Z,34.51
2022-08-03T13:46:49.184Z,34.30
2022-08-03T13:49:54.177Z,35.02
2022-08-03T13:53:02.690Z,33.67
2022-08-03T13:56:05.058Z,33.14
2022-08-03T13:59:07.147Z,33.46
2022-08-03T14:02:09.548Z,32.94
2022-08-03T14:05:11.937Z,33.80
2022-08-03T14:08:14.039Z,34.38
2022-08-03T14:11:17.526Z,33.81
2022-08-03T14:14:19.638Z,32.14
2022-08-03T14:17:23.263Z,33.34
2022-08-03T14:20:36.800Z,32.42
